sensor_id;sensor_type;location;lat;lon;timestamp;P1;durP1;ratioP1;P2;durP2;ratioP2
35576;SDS011;21680;52.400;16.920;2023-04-01T00:00:50;22.50;;;13.20;;
35576;SDS011;21680;52.400;16.920;2023-04-01T00:03:17;27.10;;;14.20;;
35576;SDS011;21680;52.400;16.920;2023-04-01T00:05:43;23.00;;;13.90;;
35576;SDS011;21680;52.400;16.920;2023-04-01T00:08:08;28.20;;;14.00;;
35576;SDS011;21680;52.400;16.920;2023-04-01T00:10:33;28.10;;;13.70;;
35576;SDS011;21680;52.400;16.920;2023-04-01T00:12:59;27.90;;;15.90;;
35576;SDS011;21680;52.400;16.920;2023-04-01T00:15:24;29.30;;;14.50;;
35576;SDS011;21680;52.400;16.920;2023-04-01T00:17:50;29.70;;;15.50;;
35576;SDS011;21680;52.400;16.920;2023-04-01T00:20:15;27.20;;;14.80;;
35576;SDS011;21680;52.400;16.920;2023-04-01T00:22:41;29.80;;;15.60;;
35576;SDS011;21680;52.400;16.920;2023-04-01T00:25:06;33.50;;;16.20;;
35576;SDS011;21680;52.400;16.920;2023-04-01T00:27:32;33.10;;;16.50;;
35576;SDS011;21680;52.400;16.920;2023-04-01T00:29:57;27.10;;;15.00;;
35576;SDS011;21680;52.400;16.920;2023-04-01T00:32:22;32.10;;;16.10;;
35576;SDS011;21680;52.400;16.920;2023-04-01T00:34:51;35.30;;;16.40;;
35576;SDS011;21680;52.400;16.920;2023-04-01T00:37:17;30.30;;;16.10;;
35576;SDS011;21680;52.400;16.920;2023-04-01T00:39:43;31.50;;;16.40;;
35576;SDS011;21680;52.400;16.920;2023-04-01T00:42:09;30.00;;;15.80;;
35576;SDS011;21680;52.400;16.920;2023-04-01T00:44:36;32.60;;;17.10;;
35576;SDS011;21680;52.400;16.920;2023-04-01T00:47:02;30.50;;;16.10;;
35576;SDS011;21680;52.400;16.920;2023-04-01T00:49:35;33.20;;;16.40;;
35576;SDS011;21680;52.400;16.920;2023-04-01T00:52:05;33.40;;;16.80;;
35576;SDS011;21680;52.400;16.920;2023-04-01T00:54:33;33.10;;;17.10;;
35576;SDS011;21680;52.400;16.920;2023-04-01T00:59:33;35.00;;;17.20;;
35576;SDS011;21680;52.400;16.920;2023-04-01T01:02:04;32.40;;;16.50;;
35576;SDS011;21680;52.400;16.920;2023-04-01T01:04:32;34.80;;;16.70;;
35576;SDS011;21680;52.400;16.920;2023-04-01T01:07:03;31.50;;;17.00;;
35576;SDS011;21680;52.400;16.920;2023-04-01T01:12:02;35.50;;;16.70;;
35576;SDS011;21680;52.400;16.920;2023-04-01T01:17:39;39.10;;;18.10;;
35576;SDS011;21680;52.400;16.920;2023-04-01T01:20:44;52.90;;;21.20;;
35576;SDS011;21680;52.400;16.920;2023-04-01T01:26:11;52.60;;;24.30;;
35576;SDS011;21680;52.400;16.920;2023-04-01T01:28:47;59.30;;;26.00;;
35576;SDS011;21680;52.400;16.920;2023-04-01T01:34:32;60.40;;;27.80;;
35576;SDS011;21680;52.400;16.920;2023-04-01T01:37:06;65.10;;;28.30;;
35576;SDS011;21680;52.400;16.920;2023-04-01T01:39:36;65.90;;;28.30;;
35576;SDS011;21680;52.400;16.920;2023-04-01T01:42:03;68.70;;;29.60;;
35576;SDS011;21680;52.400;16.920;2023-04-01T01:44:30;75.10;;;32.40;;
35576;SDS011;21680;52.400;16.920;2023-04-01T01:46:59;83.60;;;34.30;;
35576;SDS011;21680;52.400;16.920;2023-04-01T01:49:25;79.20;;;33.30;;
35576;SDS011;21680;52.400;16.920;2023-04-01T01:51:55;85.50;;;35.20;;
35576;SDS011;21680;52.400;16.920;2023-04-01T01:54:21;73.50;;;32.80;;
35576;SDS011;21680;52.400;16.920;2023-04-01T01:56:48;83.80;;;35.40;;
35576;SDS011;21680;52.400;16.920;2023-04-01T01:59:17;84.70;;;34.50;;
35576;SDS011;21680;52.400;16.920;2023-04-01T02:01:47;79.80;;;33.40;;
35576;SDS011;21680;52.400;16.920;2023-04-01T02:04:15;71.40;;;31.30;;
35576;SDS011;21680;52.400;16.920;2023-04-01T02:06:48;89.80;;;34.60;;
35576;SDS011;21680;52.400;16.920;2023-04-01T02:09:20;82.50;;;33.10;;
35576;SDS011;21680;52.400;16.920;2023-04-01T02:11:51;72.80;;;30.50;;
35576;SDS011;21680;52.400;16.920;2023-04-01T02:14:25;70.60;;;31.00;;
35576;SDS011;21680;52.400;16.920;2023-04-01T02:16:54;80.50;;;30.80;;
35576;SDS011;21680;52.400;16.920;2023-04-01T02:19:25;76.10;;;31.30;;
35576;SDS011;21680;52.400;16.920;2023-04-01T02:21:57;66.90;;;28.90;;
35576;SDS011;21680;52.400;16.920;2023-04-01T02:24:26;74.80;;;29.90;;
35576;SDS011;21680;52.400;16.920;2023-04-01T02:26:55;84.90;;;32.40;;
35576;SDS011;21680;52.400;16.920;2023-04-01T02:29:20;70.30;;;30.40;;
35576;SDS011;21680;52.400;16.920;2023-04-01T02:31:48;79.10;;;30.30;;
35576;SDS011;21680;52.400;16.920;2023-04-01T02:34:14;79.40;;;30.90;;
35576;SDS011;21680;52.400;16.920;2023-04-01T02:36:40;80.00;;;31.60;;
35576;SDS011;21680;52.400;16.920;2023-04-01T02:39:07;83.80;;;32.70;;
35576;SDS011;21680;52.400;16.920;2023-04-01T02:41:38;84.70;;;31.30;;
35576;SDS011;21680;52.400;16.920;2023-04-01T02:44:08;78.30;;;31.50;;
35576;SDS011;21680;52.400;16.920;2023-04-01T02:46:35;84.10;;;31.90;;
35576;SDS011;21680;52.400;16.920;2023-04-01T02:49:01;75.30;;;30.20;;
35576;SDS011;21680;52.400;16.920;2023-04-01T02:51:26;72.50;;;29.50;;
35576;SDS011;21680;52.400;16.920;2023-04-01T02:53:51;71.80;;;29.30;;
35576;SDS011;21680;52.400;16.920;2023-04-01T02:56:17;79.90;;;32.90;;
35576;SDS011;21680;52.400;16.920;2023-04-01T02:58:44;74.10;;;29.70;;
35576;SDS011;21680;52.400;16.920;2023-04-01T03:01:09;82.50;;;32.00;;
35576;SDS011;21680;52.400;16.920;2023-04-01T03:03:35;80.10;;;32.30;;
35576;SDS011;21680;52.400;16.920;2023-04-01T03:06:10;73.30;;;30.10;;
35576;SDS011;21680;52.400;16.920;2023-04-01T03:08:37;76.00;;;31.70;;
35576;SDS011;21680;52.400;16.920;2023-04-01T03:11:03;76.60;;;29.30;;
35576;SDS011;21680;52.400;16.920;2023-04-01T03:13:28;84.60;;;32.70;;
35576;SDS011;21680;52.400;16.920;2023-04-01T03:15:54;82.40;;;29.30;;
35576;SDS011;21680;52.400;16.920;2023-04-01T03:18:19;77.00;;;29.20;;
35576;SDS011;21680;52.400;16.920;2023-04-01T03:20:45;77.60;;;29.50;;
35576;SDS011;21680;52.400;16.920;2023-04-01T03:23:11;78.50;;;29.30;;
35576;SDS011;21680;52.400;16.920;2023-04-01T03:25:36;78.70;;;28.40;;
35576;SDS011;21680;52.400;16.920;2023-04-01T03:28:02;70.30;;;27.60;;
35576;SDS011;21680;52.400;16.920;2023-04-01T03:30:28;71.70;;;27.40;;
35576;SDS011;21680;52.400;16.920;2023-04-01T03:32:56;73.60;;;27.10;;
35576;SDS011;21680;52.400;16.920;2023-04-01T03:35:22;65.20;;;25.50;;
35576;SDS011;21680;52.400;16.920;2023-04-01T03:37:47;71.50;;;26.00;;
35576;SDS011;21680;52.400;16.920;2023-04-01T03:40:13;66.30;;;26.10;;
35576;SDS011;21680;52.400;16.920;2023-04-01T03:42:38;65.80;;;25.00;;
35576;SDS011;21680;52.400;16.920;2023-04-01T03:45:04;44.00;;;17.60;;
35576;SDS011;21680;52.400;16.920;2023-04-01T03:47:30;48.40;;;19.20;;
35576;SDS011;21680;52.400;16.920;2023-04-01T03:49:55;41.20;;;18.50;;
35576;SDS011;21680;52.400;16.920;2023-04-01T03:52:21;47.80;;;18.80;;
35576;SDS011;21680;52.400;16.920;2023-04-01T03:54:46;41.80;;;16.60;;
35576;SDS011;21680;52.400;16.920;2023-04-01T03:57:12;34.50;;;15.30;;
35576;SDS011;21680;52.400;16.920;2023-04-01T03:59:37;41.70;;;16.20;;
35576;SDS011;21680;52.400;16.920;2023-04-01T04:02:02;43.00;;;15.50;;
35576;SDS011;21680;52.400;16.920;2023-04-01T04:04:28;38.90;;;15.60;;
35576;SDS011;21680;52.400;16.920;2023-04-01T04:06:54;38.20;;;15.30;;
35576;SDS011;21680;52.400;16.920;2023-04-01T04:09:19;40.20;;;15.40;;
35576;SDS011;21680;52.400;16.920;2023-04-01T04:11:45;39.60;;;15.50;;
35576;SDS011;21680;52.400;16.920;2023-04-01T04:14:10;42.90;;;16.50;;
35576;SDS011;21680;52.400;16.920;2023-04-01T04:16:36;40.80;;;16.00;;
35576;SDS011;21680;52.400;16.920;2023-04-01T04:19:04;41.70;;;16.40;;
35576;SDS011;21680;52.400;16.920;2023-04-01T04:21:30;38.80;;;15.80;;
35576;SDS011;21680;52.400;16.920;2023-04-01T04:23:55;39.60;;;16.20;;
35576;SDS011;21680;52.400;16.920;2023-04-01T04:26:21;37.90;;;15.30;;
35576;SDS011;21680;52.400;16.920;2023-04-01T04:28:46;43.00;;;17.10;;
35576;SDS011;21680;52.400;16.920;2023-04-01T04:31:11;46.80;;;18.30;;
35576;SDS011;21680;52.400;16.920;2023-04-01T04:33:37;45.60;;;18.50;;
35576;SDS011;21680;52.400;16.920;2023-04-01T04:36:02;48.20;;;18.00;;
35576;SDS011;21680;52.400;16.920;2023-04-01T04:38:29;50.30;;;19.50;;
35576;SDS011;21680;52.400;16.920;2023-04-01T04:40:54;47.70;;;18.80;;
35576;SDS011;21680;52.400;16.920;2023-04-01T04:43:20;49.70;;;19.60;;
35576;SDS011;21680;52.400;16.920;2023-04-01T04:45:46;52.40;;;20.40;;
35576;SDS011;21680;52.400;16.920;2023-04-01T04:48:12;48.10;;;19.30;;
35576;SDS011;21680;52.400;16.920;2023-04-01T04:50:41;48.90;;;19.10;;
35576;SDS011;21680;52.400;16.920;2023-04-01T04:53:09;68.70;;;23.70;;
35576;SDS011;21680;52.400;16.920;2023-04-01T04:55:35;52.70;;;19.30;;
35576;SDS011;21680;52.400;16.920;2023-04-01T04:58:00;59.30;;;22.20;;
35576;SDS011;21680;52.400;16.920;2023-04-01T05:00:26;60.30;;;21.90;;
35576;SDS011;21680;52.400;16.920;2023-04-01T05:02:51;57.20;;;22.50;;
35576;SDS011;21680;52.400;16.920;2023-04-01T05:05:16;56.60;;;22.00;;
35576;SDS011;21680;52.400;16.920;2023-04-01T05:07:42;52.90;;;20.80;;
35576;SDS011;21680;52.400;16.920;2023-04-01T05:10:07;56.30;;;21.50;;
35576;SDS011;21680;52.400;16.920;2023-04-01T05:12:33;51.90;;;20.90;;
35576;SDS011;21680;52.400;16.920;2023-04-01T05:15:03;58.80;;;22.20;;
35576;SDS011;21680;52.400;16.920;2023-04-01T05:17:30;54.80;;;21.00;;
35576;SDS011;21680;52.400;16.920;2023-04-01T05:19:55;58.70;;;22.60;;
35576;SDS011;21680;52.400;16.920;2023-04-01T05:22:21;53.00;;;21.30;;
35576;SDS011;21680;52.400;16.920;2023-04-01T05:24:46;55.00;;;21.20;;
35576;SDS011;21680;52.400;16.920;2023-04-01T05:27:11;58.50;;;21.20;;
35576;SDS011;21680;52.400;16.920;2023-04-01T05:29:36;57.10;;;23.10;;
35576;SDS011;21680;52.400;16.920;2023-04-01T05:32:02;48.20;;;19.90;;
35576;SDS011;21680;52.400;16.920;2023-04-01T05:34:27;56.50;;;22.10;;
35576;SDS011;21680;52.400;16.920;2023-04-01T05:36:52;60.90;;;22.30;;
35576;SDS011;21680;52.400;16.920;2023-04-01T05:39:17;53.70;;;21.50;;
35576;SDS011;21680;52.400;16.920;2023-04-01T05:41:43;48.00;;;19.60;;
35576;SDS011;21680;52.400;16.920;2023-04-01T05:44:10;51.10;;;21.00;;
35576;SDS011;21680;52.400;16.920;2023-04-01T05:46:37;55.50;;;22.20;;
35576;SDS011;21680;52.400;16.920;2023-04-01T05:49:02;55.30;;;20.30;;
35576;SDS011;21680;52.400;16.920;2023-04-01T05:51:27;56.70;;;21.90;;
35576;SDS011;21680;52.400;16.920;2023-04-01T05:53:52;56.40;;;20.60;;
35576;SDS011;21680;52.400;16.920;2023-04-01T05:56:18;51.00;;;20.50;;
35576;SDS011;21680;52.400;16.920;2023-04-01T05:58:43;57.20;;;21.40;;
35576;SDS011;21680;52.400;16.920;2023-04-01T06:01:15;48.00;;;21.20;;
35576;SDS011;21680;52.400;16.920;2023-04-01T06:03:40;52.90;;;20.00;;
35576;SDS011;21680;52.400;16.920;2023-04-01T06:06:10;46.10;;;19.40;;
35576;SDS011;21680;52.400;16.920;2023-04-01T06:08:40;47.80;;;20.40;;
35576;SDS011;21680;52.400;16.920;2023-04-01T06:17:30;36.30;;;14.90;;
35576;SDS011;21680;52.400;16.920;2023-04-01T06:20:03;35.30;;;15.40;;
35576;SDS011;21680;52.400;16.920;2023-04-01T06:23:05;39.50;;;17.30;;
35576;SDS011;21680;52.400;16.920;2023-04-01T06:25:43;41.30;;;17.30;;
35576;SDS011;21680;52.400;16.920;2023-04-01T06:34:14;29.70;;;12.50;;
35576;SDS011;21680;52.400;16.920;2023-04-01T06:36:48;27.40;;;12.80;;
35576;SDS011;21680;52.400;16.920;2023-04-01T06:45:28;38.60;;;13.70;;
35576;SDS011;21680;52.400;16.920;2023-04-01T06:51:15;27.20;;;12.30;;
35576;SDS011;21680;52.400;16.920;2023-04-01T06:56:25;38.40;;;15.80;;
35576;SDS011;21680;52.400;16.920;2023-04-01T06:58:53;38.60;;;15.70;;
35576;SDS011;21680;52.400;16.920;2023-04-01T07:01:26;35.60;;;15.50;;
35576;SDS011;21680;52.400;16.920;2023-04-01T07:07:53;43.50;;;17.50;;
35576;SDS011;21680;52.400;16.920;2023-04-01T07:10:03;46.90;;;17.80;;
35576;SDS011;21680;52.400;16.920;2023-04-01T07:12:40;47.60;;;19.10;;
35576;SDS011;21680;52.400;16.920;2023-04-01T07:18:06;52.30;;;20.70;;
35576;SDS011;21680;52.400;16.920;2023-04-01T07:20:41;52.90;;;21.40;;
35576;SDS011;21680;52.400;16.920;2023-04-01T07:23:10;52.20;;;22.40;;
35576;SDS011;21680;52.400;16.920;2023-04-01T07:25:47;50.90;;;21.10;;
35576;SDS011;21680;52.400;16.920;2023-04-01T07:28:16;48.20;;;20.20;;
35576;SDS011;21680;52.400;16.920;2023-04-01T07:36:10;40.80;;;16.70;;
35576;SDS011;21680;52.400;16.920;2023-04-01T07:38:52;37.60;;;16.40;;
35576;SDS011;21680;52.400;16.920;2023-04-01T07:41:30;45.00;;;17.10;;
35576;SDS011;21680;52.400;16.920;2023-04-01T07:52:24;42.30;;;18.80;;
35576;SDS011;21680;52.400;16.920;2023-04-01T07:55:06;39.70;;;16.90;;
35576;SDS011;21680;52.400;16.920;2023-04-01T08:00:27;38.60;;;16.80;;
35576;SDS011;21680;52.400;16.920;2023-04-01T08:15:00;32.60;;;14.50;;
35576;SDS011;21680;52.400;16.920;2023-04-01T08:23:00;30.80;;;13.00;;
35576;SDS011;21680;52.400;16.920;2023-04-01T08:25:37;27.70;;;13.10;;
35576;SDS011;21680;52.400;16.920;2023-04-01T08:33:34;27.70;;;14.20;;
35576;SDS011;21680;52.400;16.920;2023-04-01T08:36:17;33.20;;;15.20;;
35576;SDS011;21680;52.400;16.920;2023-04-01T09:07:59;74.10;;;26.30;;
35576;SDS011;21680;52.400;16.920;2023-04-01T09:10:42;69.90;;;26.00;;
35576;SDS011;21680;52.400;16.920;2023-04-01T09:13:48;60.90;;;24.80;;
35576;SDS011;21680;52.400;16.920;2023-04-01T09:28:11;57.90;;;24.80;;
35576;SDS011;21680;52.400;16.920;2023-04-01T09:44:45;63.60;;;23.70;;
35576;SDS011;21680;52.400;16.920;2023-04-01T09:47:27;64.60;;;24.10;;
35576;SDS011;21680;52.400;16.920;2023-04-01T09:50:06;71.80;;;27.10;;
35576;SDS011;21680;52.400;16.920;2023-04-01T09:58:33;65.20;;;23.80;;
35576;SDS011;21680;52.400;16.920;2023-04-01T10:01:08;68.40;;;24.50;;
35576;SDS011;21680;52.400;16.920;2023-04-01T10:07:19;60.30;;;21.50;;
35576;SDS011;21680;52.400;16.920;2023-04-01T10:13:17;52.40;;;20.10;;
35576;SDS011;21680;52.400;16.920;2023-04-01T10:16:10;59.50;;;19.40;;
35576;SDS011;21680;52.400;16.920;2023-04-01T10:19:07;60.00;;;19.80;;
35576;SDS011;21680;52.400;16.920;2023-04-01T10:24:43;61.70;;;20.40;;
35576;SDS011;21680;52.400;16.920;2023-04-01T10:27:33;63.60;;;21.60;;
35576;SDS011;21680;52.400;16.920;2023-04-01T10:33:02;72.40;;;23.90;;
35576;SDS011;21680;52.400;16.920;2023-04-01T10:35:50;70.00;;;22.50;;
35576;SDS011;21680;52.400;16.920;2023-04-01T10:52:58;87.30;;;26.80;;
35576;SDS011;21680;52.400;16.920;2023-04-01T11:24:34;70.70;;;24.30;;
35576;SDS011;21680;52.400;16.920;2023-04-01T11:27:25;71.70;;;24.50;;
35576;SDS011;21680;52.400;16.920;2023-04-01T11:30:08;68.40;;;24.90;;
35576;SDS011;21680;52.400;16.920;2023-04-01T11:38:44;51.60;;;21.10;;
35576;SDS011;21680;52.400;16.920;2023-04-01T11:52:16;53.90;;;21.70;;
35576;SDS011;21680;52.400;16.920;2023-04-01T11:55:06;49.40;;;21.60;;
35576;SDS011;21680;52.400;16.920;2023-04-01T12:00:35;45.70;;;19.70;;
35576;SDS011;21680;52.400;16.920;2023-04-01T12:06:11;57.20;;;27.10;;
35576;SDS011;21680;52.400;16.920;2023-04-01T12:08:47;52.30;;;24.60;;
35576;SDS011;21680;52.400;16.920;2023-04-01T12:25:45;39.50;;;21.30;;
35576;SDS011;21680;52.400;16.920;2023-04-01T12:28:42;49.30;;;23.00;;
35576;SDS011;21680;52.400;16.920;2023-04-01T12:31:27;50.40;;;25.30;;
35576;SDS011;21680;52.400;16.920;2023-04-01T12:39:37;42.70;;;22.70;;
35576;SDS011;21680;52.400;16.920;2023-04-01T12:42:44;45.90;;;23.30;;
35576;SDS011;21680;52.400;16.920;2023-04-01T12:48:05;34.00;;;19.30;;
35576;SDS011;21680;52.400;16.920;2023-04-01T12:55:39;49.90;;;23.70;;
35576;SDS011;21680;52.400;16.920;2023-04-01T13:04:33;39.70;;;23.40;;
35576;SDS011;21680;52.400;16.920;2023-04-01T13:12:29;36.30;;;20.70;;
35576;SDS011;21680;52.400;16.920;2023-04-01T13:15:48;32.20;;;17.40;;
35576;SDS011;21680;52.400;16.920;2023-04-01T13:23:18;29.20;;;18.20;;
35576;SDS011;21680;52.400;16.920;2023-04-01T13:26:00;30.20;;;18.70;;
35576;SDS011;21680;52.400;16.920;2023-04-01T13:28:30;27.40;;;17.60;;
35576;SDS011;21680;52.400;16.920;2023-04-01T13:36:51;24.40;;;16.40;;
35576;SDS011;21680;52.400;16.920;2023-04-01T13:39:15;20.90;;;14.30;;
35576;SDS011;21680;52.400;16.920;2023-04-01T13:51:45;24.50;;;15.60;;
35576;SDS011;21680;52.400;16.920;2023-04-01T13:57:23;22.40;;;15.30;;
35576;SDS011;21680;52.400;16.920;2023-04-01T14:06:09;19.10;;;12.90;;
35576;SDS011;21680;52.400;16.920;2023-04-01T14:22:20;18.60;;;12.00;;
35576;SDS011;21680;52.400;16.920;2023-04-01T14:33:15;14.20;;;9.90;;
35576;SDS011;21680;52.400;16.920;2023-04-01T14:35:50;18.90;;;10.30;;
35576;SDS011;21680;52.400;16.920;2023-04-01T14:38:39;16.60;;;8.40;;
35576;SDS011;21680;52.400;16.920;2023-04-01T14:44:14;12.20;;;7.90;;
35576;SDS011;21680;52.400;16.920;2023-04-01T14:46:53;15.00;;;10.10;;
35576;SDS011;21680;52.400;16.920;2023-04-01T14:49:42;16.40;;;8.90;;
35576;SDS011;21680;52.400;16.920;2023-04-01T14:54:46;11.20;;;8.50;;
35576;SDS011;21680;52.400;16.920;2023-04-01T14:57:24;14.40;;;10.20;;
35576;SDS011;21680;52.400;16.920;2023-04-01T15:10:49;22.60;;;11.40;;
35576;SDS011;21680;52.400;16.920;2023-04-01T15:16:27;17.50;;;11.40;;
35576;SDS011;21680;52.400;16.920;2023-04-01T15:24:59;18.80;;;12.20;;
35576;SDS011;21680;52.400;16.920;2023-04-01T15:33:13;18.70;;;11.10;;
35576;SDS011;21680;52.400;16.920;2023-04-01T15:35:56;16.90;;;12.10;;
35576;SDS011;21680;52.400;16.920;2023-04-01T15:50:15;21.10;;;11.80;;
35576;SDS011;21680;52.400;16.920;2023-04-01T15:52:56;14.20;;;9.80;;
35576;SDS011;21680;52.400;16.920;2023-04-01T15:58:20;14.00;;;10.30;;
35576;SDS011;21680;52.400;16.920;2023-04-01T16:04:32;17.40;;;10.80;;
35576;SDS011;21680;52.400;16.920;2023-04-01T16:10:29;11.90;;;8.30;;
35576;SDS011;21680;52.400;16.920;2023-04-01T16:13:08;14.00;;;10.30;;
35576;SDS011;21680;52.400;16.920;2023-04-01T16:15:38;14.60;;;11.00;;
35576;SDS011;21680;52.400;16.920;2023-04-01T16:18:18;15.70;;;9.70;;
35576;SDS011;21680;52.400;16.920;2023-04-01T16:20:51;20.90;;;11.70;;
35576;SDS011;21680;52.400;16.920;2023-04-01T16:23:25;14.40;;;9.90;;
35576;SDS011;21680;52.400;16.920;2023-04-01T16:26:03;23.70;;;13.10;;
35576;SDS011;21680;52.400;16.920;2023-04-01T16:29:10;16.80;;;10.10;;
35576;SDS011;21680;52.400;16.920;2023-04-01T16:31:46;15.60;;;10.20;;
35576;SDS011;21680;52.400;16.920;2023-04-01T16:34:27;14.00;;;10.50;;
35576;SDS011;21680;52.400;16.920;2023-04-01T16:37:16;13.40;;;9.70;;
35576;SDS011;21680;52.400;16.920;2023-04-01T16:39:47;18.10;;;12.20;;
35576;SDS011;21680;52.400;16.920;2023-04-01T16:42:21;18.30;;;12.50;;
35576;SDS011;21680;52.400;16.920;2023-04-01T16:47:50;18.80;;;14.40;;
35576;SDS011;21680;52.400;16.920;2023-04-01T16:50:39;20.30;;;12.50;;
35576;SDS011;21680;52.400;16.920;2023-04-01T16:55:48;20.30;;;12.50;;
35576;SDS011;21680;52.400;16.920;2023-04-01T16:58:35;18.80;;;10.00;;
35576;SDS011;21680;52.400;16.920;2023-04-01T17:01:12;14.60;;;10.30;;
35576;SDS011;21680;52.400;16.920;2023-04-01T17:03:44;16.30;;;10.60;;
35576;SDS011;21680;52.400;16.920;2023-04-01T17:06:14;16.00;;;10.00;;
35576;SDS011;21680;52.400;16.920;2023-04-01T17:12:25;19.60;;;12.50;;
35576;SDS011;21680;52.400;16.920;2023-04-01T17:20:12;21.20;;;12.70;;
35576;SDS011;21680;52.400;16.920;2023-04-01T17:23:23;15.60;;;10.10;;
35576;SDS011;21680;52.400;16.920;2023-04-01T17:26:00;13.10;;;8.80;;
35576;SDS011;21680;52.400;16.920;2023-04-01T17:28:49;16.20;;;10.20;;
35576;SDS011;21680;52.400;16.920;2023-04-01T17:36:57;15.40;;;9.50;;
35576;SDS011;21680;52.400;16.920;2023-04-01T17:39:37;13.60;;;8.50;;
35576;SDS011;21680;52.400;16.920;2023-04-01T17:42:23;18.50;;;11.90;;
35576;SDS011;21680;52.400;16.920;2023-04-01T17:48:01;16.60;;;11.20;;
35576;SDS011;21680;52.400;16.920;2023-04-01T17:50:51;20.40;;;12.00;;
35576;SDS011;21680;52.400;16.920;2023-04-01T17:53:31;16.60;;;10.20;;
35576;SDS011;21680;52.400;16.920;2023-04-01T17:56:08;17.50;;;11.20;;
35576;SDS011;21680;52.400;16.920;2023-04-01T17:58:46;20.70;;;12.80;;
35576;SDS011;21680;52.400;16.920;2023-04-01T18:01:30;19.80;;;11.20;;
35576;SDS011;21680;52.400;16.920;2023-04-01T18:04:04;19.30;;;12.80;;
35576;SDS011;21680;52.400;16.920;2023-04-01T18:06:49;18.00;;;11.00;;
35576;SDS011;21680;52.400;16.920;2023-04-01T18:09:42;17.90;;;12.60;;
35576;SDS011;21680;52.400;16.920;2023-04-01T18:12:27;17.50;;;9.80;;
35576;SDS011;21680;52.400;16.920;2023-04-01T18:15:11;18.60;;;12.60;;
35576;SDS011;21680;52.400;16.920;2023-04-01T18:26:24;15.80;;;9.60;;
35576;SDS011;21680;52.400;16.920;2023-04-01T18:29:39;13.80;;;7.80;;
35576;SDS011;21680;52.400;16.920;2023-04-01T18:32:05;16.90;;;10.00;;
35576;SDS011;21680;52.400;16.920;2023-04-01T18:34:50;11.20;;;7.10;;
35576;SDS011;21680;52.400;16.920;2023-04-01T18:37:27;17.60;;;9.60;;
35576;SDS011;21680;52.400;16.920;2023-04-01T18:40:11;13.60;;;8.00;;
35576;SDS011;21680;52.400;16.920;2023-04-01T18:45:50;13.00;;;7.30;;
35576;SDS011;21680;52.400;16.920;2023-04-01T18:51:25;12.70;;;7.10;;
35576;SDS011;21680;52.400;16.920;2023-04-01T18:56:43;10.90;;;6.40;;
35576;SDS011;21680;52.400;16.920;2023-04-01T18:59:26;16.00;;;7.10;;
35576;SDS011;21680;52.400;16.920;2023-04-01T19:04:56;11.20;;;7.80;;
35576;SDS011;21680;52.400;16.920;2023-04-01T19:07:48;8.90;;;5.80;;
35576;SDS011;21680;52.400;16.920;2023-04-01T19:13:21;15.30;;;8.80;;
35576;SDS011;21680;52.400;16.920;2023-04-01T19:16:13;11.00;;;7.50;;
35576;SDS011;21680;52.400;16.920;2023-04-01T19:21:47;13.20;;;7.00;;
35576;SDS011;21680;52.400;16.920;2023-04-01T19:27:02;15.40;;;9.30;;
35576;SDS011;21680;52.400;16.920;2023-04-01T19:35:09;14.50;;;9.20;;
35576;SDS011;21680;52.400;16.920;2023-04-01T19:37:57;14.40;;;8.90;;
35576;SDS011;21680;52.400;16.920;2023-04-01T19:45:38;17.10;;;9.90;;
35576;SDS011;21680;52.400;16.920;2023-04-01T19:50:51;16.30;;;10.70;;
35576;SDS011;21680;52.400;16.920;2023-04-01T19:59:02;9.90;;;6.30;;
35576;SDS011;21680;52.400;16.920;2023-04-01T20:04:03;8.70;;;6.40;;
35576;SDS011;21680;52.400;16.920;2023-04-01T20:12:15;15.20;;;9.90;;
35576;SDS011;21680;52.400;16.920;2023-04-01T20:14:46;19.20;;;11.70;;
35576;SDS011;21680;52.400;16.920;2023-04-01T20:25:15;18.60;;;11.90;;
35576;SDS011;21680;52.400;16.920;2023-04-01T20:27:55;16.40;;;10.40;;
35576;SDS011;21680;52.400;16.920;2023-04-01T20:30:44;13.50;;;9.20;;
35576;SDS011;21680;52.400;16.920;2023-04-01T20:33:37;13.60;;;8.90;;
35576;SDS011;21680;52.400;16.920;2023-04-01T20:44:19;19.10;;;12.60;;
35576;SDS011;21680;52.400;16.920;2023-04-01T20:52:25;20.90;;;12.80;;
35576;SDS011;21680;52.400;16.920;2023-04-01T20:55:28;15.90;;;11.80;;
35576;SDS011;21680;52.400;16.920;2023-04-01T21:01:14;15.30;;;9.70;;
35576;SDS011;21680;52.400;16.920;2023-04-01T21:03:59;15.70;;;10.10;;
35576;SDS011;21680;52.400;16.920;2023-04-01T21:10:09;17.00;;;10.00;;
35576;SDS011;21680;52.400;16.920;2023-04-01T21:15:33;13.20;;;8.10;;
35576;SDS011;21680;52.400;16.920;2023-04-01T21:20:44;13.40;;;8.50;;
35576;SDS011;21680;52.400;16.920;2023-04-01T21:29:01;15.80;;;9.90;;
35576;SDS011;21680;52.400;16.920;2023-04-01T21:37:37;19.80;;;11.30;;
35576;SDS011;21680;52.400;16.920;2023-04-01T21:46:09;23.30;;;12.20;;
35576;SDS011;21680;52.400;16.920;2023-04-01T21:55:04;19.60;;;9.40;;
35576;SDS011;21680;52.400;16.920;2023-04-01T22:00:33;26.40;;;12.50;;
35576;SDS011;21680;52.400;16.920;2023-04-01T22:08:46;25.50;;;13.50;;
35576;SDS011;21680;52.400;16.920;2023-04-01T22:17:11;20.70;;;10.40;;
35576;SDS011;21680;52.400;16.920;2023-04-01T22:22:45;15.10;;;8.50;;
35576;SDS011;21680;52.400;16.920;2023-04-01T22:25:22;29.20;;;12.70;;
35576;SDS011;21680;52.400;16.920;2023-04-01T22:28:05;18.40;;;10.80;;
35576;SDS011;21680;52.400;16.920;2023-04-01T22:30:36;23.70;;;12.20;;
35576;SDS011;21680;52.400;16.920;2023-04-01T22:33:07;23.40;;;12.80;;
35576;SDS011;21680;52.400;16.920;2023-04-01T22:41:30;37.10;;;14.80;;
35576;SDS011;21680;52.400;16.920;2023-04-01T22:49:29;20.00;;;7.40;;
35576;SDS011;21680;52.400;16.920;2023-04-01T22:52:09;20.50;;;8.40;;
35576;SDS011;21680;52.400;16.920;2023-04-01T22:54:56;18.70;;;9.40;;
35576;SDS011;21680;52.400;16.920;2023-04-01T22:57:35;22.10;;;10.20;;
35576;SDS011;21680;52.400;16.920;2023-04-01T23:00:06;22.30;;;11.10;;
35576;SDS011;21680;52.400;16.920;2023-04-01T23:02:59;23.10;;;10.10;;
35576;SDS011;21680;52.400;16.920;2023-04-01T23:05:44;27.50;;;13.20;;
35576;SDS011;21680;52.400;16.920;2023-04-01T23:09:17;26.00;;;14.70;;
35576;SDS011;21680;52.400;16.920;2023-04-01T23:13:52;22.40;;;10.50;;
35576;SDS011;21680;52.400;16.920;2023-04-01T23:16:26;24.90;;;11.30;;
35576;SDS011;21680;52.400;16.920;2023-04-01T23:19:00;13.40;;;7.50;;
35576;SDS011;21680;52.400;16.920;2023-04-01T23:21:49;12.30;;;6.20;;
35576;SDS011;21680;52.400;16.920;2023-04-01T23:24:25;13.80;;;6.30;;
35576;SDS011;21680;52.400;16.920;2023-04-01T23:26:59;15.50;;;8.30;;
35576;SDS011;21680;52.400;16.920;2023-04-01T23:29:30;17.70;;;7.30;;
35576;SDS011;21680;52.400;16.920;2023-04-01T23:32:01;13.10;;;6.80;;
35576;SDS011;21680;52.400;16.920;2023-04-01T23:34:30;12.90;;;6.70;;
35576;SDS011;21680;52.400;16.920;2023-04-01T23:37:10;24.50;;;9.60;;
35576;SDS011;21680;52.400;16.920;2023-04-01T23:39:38;16.80;;;8.50;;
35576;SDS011;21680;52.400;16.920;2023-04-01T23:42:06;17.80;;;9.50;;
35576;SDS011;21680;52.400;16.920;2023-04-01T23:44:39;19.70;;;10.60;;